SE Lincoln WX Station Historical Data
 
Daily Summary for July 13, 2020 Units:  English    Metric   Both
Daily Weekly Monthly Yearly Custom
  Current: High: Low: Average:
Temperature: 71 °F 72.8 °F 70.7 °F 71.9 °F
Dew Point: 63.8 °F 64.6 °F 63.4 °F 64 °F
Humidity: 78% 78% 74% 76%
Wind Speed: 2.2mph 2.7mph 0.7mph 1.6mph
Wind Gust: 8mph 8mph - -
WindSouth - - SSE
Pressure: 29.86 in 29.90 in 29.85 in -
Precipitation: 0.00 in      
 
Tabular Data for July 13, 2020
Time Temperature Dew Point Pressure Wind Wind Speed Wind Gust Humidity Rainfall Rate (Hourly) solar
00:04 72.8 °F 64 °F 29.90 in SSW 0.7 mph 2 mph 74% 0.00 in 0 W/m2
00:09 72.6 °F 63.9 °F 29.90 in SSW 1 mph 2 mph 74% 0.00 in 0 W/m2
00:14 72.5 °F 63.7 °F 29.90 in SSW 1 mph 3 mph 74% 0.00 in 0 W/m2
00:19 72.4 °F 63.9 °F 29.90 in SSW 1 mph 2 mph 74.6% 0.00 in 0 W/m2
00:24 72.4 °F 64 °F 29.90 in SSW 0.7 mph 3 mph 75% 0.00 in 0 W/m2
00:29 72.4 °F 64 °F 29.90 in South 1.6 mph 4 mph 75% 0.00 in 0 W/m2
00:34 72.4 °F 64 °F 29.90 in SSE 1.4 mph 4 mph 75% 0.00 in 0 W/m2
00:39 72.4 °F 64.1 °F 29.90 in SSE 1.7 mph 5 mph 75% 0.00 in 0 W/m2
00:44 72.5 °F 64.1 °F 29.90 in SSE 1.4 mph 4 mph 75% 0.00 in 0 W/m2
00:49 72.6 °F 64.2 °F 29.90 in SSE 0.9 mph 4 mph 75% 0.00 in 0 W/m2
00:54 72.6 °F 64.2 °F 29.90 in SSE 1.6 mph 4 mph 75% 0.00 in 0 W/m2
00:59 72.6 °F 64.4 °F 29.90 in SSE 1.4 mph 4 mph 75.4% 0.00 in 0 W/m2
01:04 72.6 °F 64.6 °F 29.90 in SE 1.7 mph 5 mph 76% 0.00 in 0 W/m2
01:09 72.6 °F 64.6 °F 29.90 in SE 2.1 mph 5 mph 76% 0.00 in 0 W/m2
01:14 72.5 °F 64.5 °F 29.89 in SE 1.8 mph 5 mph 76% 0.00 in 0 W/m2
01:19 72.5 °F 64.5 °F 29.89 in SSE 1.8 mph 4 mph 76% 0.00 in 0 W/m2
01:24 72.5 °F 64.5 °F 29.88 in SSE 1.5 mph 5 mph 76% 0.00 in 0 W/m2
01:29 72.5 °F 64.5 °F 29.88 in SSE 1.1 mph 4 mph 76% 0.00 in 0 W/m2
01:34 72.5 °F 64.4 °F 29.88 in SE 1.9 mph 6 mph 75.8% 0.00 in 0 W/m2
01:39 72.5 °F 64.1 °F 29.87 in SE 1.5 mph 5 mph 75% 0.00 in 0 W/m2
01:44 72.5 °F 64.1 °F 29.87 in SE 1.6 mph 4 mph 75% 0.00 in 0 W/m2
01:49 72.4 °F 64 °F 29.86 in SE 1.7 mph 4 mph 75% 0.00 in 0 W/m2
01:54 72.3 °F 64 °F 29.87 in SE 2 mph 4 mph 75.2% 0.00 in 0 W/m2
01:59 72.2 °F 64.2 °F 29.87 in SSE 1.4 mph 4 mph 75.9% 0.00 in 0 W/m2
02:04 72.1 °F 64.2 °F 29.87 in SSE 2.1 mph 5 mph 76% 0.00 in 0 W/m2
02:09 72 °F 64.2 °F 29.87 in SSE 1.1 mph 4 mph 76.4% 0.00 in 0 W/m2
02:14 71.9 °F 64.3 °F 29.87 in SSE 2 mph 5 mph 77% 0.00 in 0 W/m2
02:19 71.7 °F 64.1 °F 29.87 in SSE 1.1 mph 4 mph 77% 0.00 in 0 W/m2
02:24 71.6 °F 64 °F 29.87 in SSE 1 mph 4 mph 77% 0.00 in 0 W/m2
02:29 71.6 °F 64 °F 29.86 in SSE 1.5 mph 4 mph 77% 0.00 in 0 W/m2
02:34 71.5 °F 63.9 °F 29.86 in SE 1.7 mph 5 mph 77% 0.00 in 0 W/m2
02:39 71.4 °F 63.8 °F 29.86 in SSE 1.9 mph 5 mph 77% 0.00 in 0 W/m2
02:44 71.4 °F 63.5 °F 29.85 in SE 2.5 mph 6 mph 76% 0.00 in 0 W/m2
02:49 71.4 °F 63.5 °F 29.85 in SE 1.1 mph 4 mph 76% 0.00 in 0 W/m2
02:54 71.3 °F 63.4 °F 29.85 in SE 1.2 mph 4 mph 76% 0.00 in 0 W/m2
02:59 71.2 °F 63.6 °F 29.86 in SE 1.1 mph 4 mph 76.7% 0.00 in 0 W/m2
03:04 71.2 °F 63.6 °F 29.87 in SSE 1.5 mph 4 mph 77% 0.00 in 0 W/m2
03:09 71 °F 63.7 °F 29.87 in SE 1.2 mph 5 mph 77.6% 0.00 in 0 W/m2
03:14 70.9 °F 63.7 °F 29.87 in SE 1.4 mph 5 mph 78% 0.00 in 0 W/m2
03:19 70.8 °F 63.6 °F 29.87 in SE 1 mph 5 mph 78% 0.00 in 0 W/m2
03:24 70.7 °F 63.5 °F 29.87 in SSE 2 mph 7 mph 78% 0.00 in 0 W/m2
03:29 70.7 °F 63.5 °F 29.86 in SSE 2.2 mph 7 mph 78% 0.00 in 0 W/m2
03:34 70.8 °F 63.6 °F 29.86 in SSE 2.7 mph 6 mph 78% 0.00 in 0 W/m2
03:39 70.8 °F 63.6 °F 29.87 in South 1.6 mph 4 mph 78% 0.00 in 0 W/m2
03:44 70.8 °F 63.6 °F 29.87 in SSE 2.4 mph 5 mph 78% 0.00 in 0 W/m2
03:49 70.9 °F 63.7 °F 29.86 in SSE 2.4 mph 8 mph 78% 0.00 in 0 W/m2
03:54 71 °F 63.8 °F 29.86 in South 2.2 mph 8 mph 78% 0.00 in 0 W/m2
66th and South
Compliments of Weather Underground - 8.51 mb